createdAt,value
2022-10-11T00:01:45.977Z,101781.31
2022-10-11T00:04:12.310Z,101790.00
2022-10-11T00:06:38.845Z,101789.91
2022-10-11T00:09:05.940Z,101793.28
2022-10-11T00:11:32.435Z,101802.03
2022-10-11T00:13:58.985Z,101801.91
2022-10-11T00:16:25.389Z,101801.78
2022-10-11T00:18:51.670Z,101800.81
2022-10-11T00:21:17.992Z,101810.41
2022-10-11T00:23:44.240Z,101804.19
2022-10-11T00:26:11.716Z,101808.44
2022-10-11T00:28:38.351Z,101815.47
2022-10-11T00:31:09.511Z,101817.16
2022-10-11T00:33:35.830Z,101819.72
2022-10-11T00:36:02.829Z,101824.19
2022-10-11T00:38:31.651Z,101824.97
2022-10-11T00:40:58.356Z,101823.00
2022-10-11T00:43:25.687Z,101825.63
2022-10-11T00:45:58.146Z,101827.31
2022-10-11T00:48:36.464Z,101829.78
2022-10-11T00:51:04.872Z,101827.16
2022-10-11T00:53:32.543Z,101831.38
2022-10-11T00:56:03.669Z,101831.44
2022-10-11T00:58:31.206Z,101833.09
2022-10-11T01:00:57.702Z,101835.63
2022-10-11T01:03:26.289Z,101844.25
2022-10-11T01:05:52.979Z,101841.47
2022-10-11T01:08:19.235Z,101845.84
2022-10-11T01:10:45.532Z,101840.53
2022-10-11T01:13:11.764Z,101837.69
2022-10-11T01:15:46.975Z,101842.88
2022-10-11T01:18:28.039Z,101845.31
2022-10-11T01:21:13.270Z,101852.13
2022-10-11T01:23:45.302Z,101852.81
2022-10-11T01:26:26.510Z,101851.03
2022-10-11T01:29:25.403Z,101845.59
2022-10-11T01:32:12.295Z,101848.34
2022-10-11T01:34:43.562Z,101852.69
2022-10-11T01:37:18.840Z,101857.09
2022-10-11T01:39:52.260Z,101857.94
2022-10-11T01:42:19.659Z,101862.28
2022-10-11T01:44:48.533Z,101864.81
2022-10-11T01:47:18.869Z,101864.75
2022-10-11T01:49:46.020Z,101867.31
2022-10-11T01:52:12.464Z,101879.44
2022-10-11T01:55:07.569Z,101881.16
2022-10-11T01:57:27.832Z,101891.63
2022-10-11T01:59:59.729Z,101883.66
2022-10-11T02:02:31.968Z,101889.75
2022-10-11T02:05:06.208Z,101890.28
2022-10-11T02:07:43.777Z,101882.28
2022-10-11T02:10:18.501Z,101885.81
2022-10-11T02:12:49.596Z,101881.38
2022-10-11T02:15:17.364Z,101877.94
2022-10-11T02:17:46.738Z,101884.06
2022-10-11T02:20:16.156Z,101887.56
2022-10-11T02:22:45.891Z,101885.81
2022-10-11T02:25:17.334Z,101889.56
2022-10-11T02:27:45.499Z,101893.22
2022-10-11T02:30:12.464Z,101892.44
2022-10-11T02:32:40.553Z,101896.81
2022-10-11T02:35:08.093Z,101901.19
2022-10-11T02:37:40.494Z,101902.84
2022-10-11T02:40:06.936Z,101898.59
2022-10-11T02:42:37.229Z,101898.72
2022-10-11T02:45:07.490Z,101899.63
2022-10-11T02:47:34.273Z,101903.25
2022-10-11T02:50:00.765Z,101902.25
2022-10-11T02:52:27.074Z,101900.50
2022-10-11T02:54:53.320Z,101905.59
2022-10-11T02:57:19.696Z,101899.50
2022-10-11T02:59:45.954Z,101901.28
2022-10-11T03:02:12.191Z,101907.31
2022-10-11T03:04:38.513Z,101917.66
2022-10-11T03:07:04.862Z,101913.94
2022-10-11T03:09:31.086Z,101911.25
2022-10-11T03:11:57.342Z,101918.00
2022-10-11T03:14:24.169Z,101924.94
2022-10-11T03:16:51.643Z,101924.88
2022-10-11T03:19:19.430Z,101931.91
2022-10-11T03:21:46.016Z,101935.63
2022-10-11T03:24:12.276Z,101937.53
2022-10-11T03:26:38.528Z,101939.34
2022-10-11T03:29:04.773Z,101940.09
2022-10-11T03:31:31.045Z,101948.22
2022-10-11T03:33:57.291Z,101951.69
2022-10-11T03:36:23.581Z,101948.03
2022-10-11T03:38:49.953Z,101959.44
2022-10-11T03:41:16.221Z,101958.47
2022-10-11T03:43:43.480Z,101959.44
2022-10-11T03:46:09.768Z,101962.66
2022-10-11T03:48:36.236Z,101969.56
2022-10-11T03:51:02.496Z,101975.59
2022-10-11T03:53:28.793Z,101972.97
2022-10-11T03:55:55.475Z,101974.75
2022-10-11T03:58:22.201Z,101978.38
2022-10-11T04:00:48.511Z,101980.78
2022-10-11T04:03:15.009Z,101973.97
2022-10-11T04:05:41.376Z,101987.22
2022-10-11T04:08:11.929Z,101987.22
2022-10-11T04:10:39.930Z,101982.84
2022-10-11T04:13:06.249Z,101987.09
2022-10-11T04:15:32.573Z,101989.69
2022-10-11T04:17:58.816Z,101995.00
2022-10-11T04:20:25.073Z,101996.78
2022-10-11T04:22:51.384Z,101991.59
2022-10-11T04:25:17.700Z,101997.50
2022-10-11T04:27:43.980Z,102004.59
2022-10-11T04:30:11.114Z,102007.00
2022-10-11T04:32:37.370Z,102007.63
2022-10-11T04:35:04.852Z,102007.44
2022-10-11T04:37:31.273Z,102008.16
2022-10-11T04:39:57.529Z,102009.63
2022-10-11T04:42:23.835Z,102013.03
2022-10-11T04:44:50.088Z,102021.81
2022-10-11T04:47:16.684Z,102023.00
2022-10-11T04:49:42.948Z,102010.78
2022-10-11T04:52:09.263Z,102015.16
2022-10-11T04:54:35.607Z,102012.31
2022-10-11T04:57:03.742Z,102018.47
2022-10-11T04:59:30.023Z,102019.41
2022-10-11T05:01:56.388Z,102024.72
2022-10-11T05:04:22.717Z,102018.53
2022-10-11T05:06:48.990Z,102036.88
2022-10-11T05:09:15.308Z,102033.28
2022-10-11T05:11:41.587Z,102046.25
2022-10-11T05:14:07.871Z,102047.94
2022-10-11T05:16:34.127Z,102056.50
2022-10-11T05:19:00.415Z,102054.13
2022-10-11T05:21:27.622Z,102055.88
2022-10-11T05:23:55.833Z,102055.75
2022-10-11T05:26:22.784Z,102060.78
2022-10-11T05:28:49.284Z,102073.88
2022-10-11T05:31:16.313Z,102073.78
2022-10-11T05:33:42.716Z,102075.63
2022-10-11T05:36:09.769Z,102076.78
2022-10-11T05:38:36.634Z,102080.16
2022-10-11T05:41:03.363Z,102086.19
2022-10-11T05:43:29.903Z,102094.84
2022-10-11T05:45:56.188Z,102091.47
2022-10-11T05:48:23.999Z,102103.03
2022-10-11T05:50:50.312Z,102107.50
2022-10-11T05:53:16.588Z,102112.75
2022-10-11T05:55:43.297Z,102120.75
2022-10-11T05:58:13.842Z,102122.22
2022-10-11T06:00:40.713Z,102119.53
2022-10-11T06:03:07.811Z,102121.31
2022-10-11T06:05:34.730Z,102123.94
2022-10-11T06:08:01.513Z,102126.44
2022-10-11T06:10:27.845Z,102136.13
2022-10-11T06:12:54.145Z,102133.53
2022-10-11T06:15:20.445Z,102132.66
2022-10-11T06:17:47.308Z,102133.59
2022-10-11T06:20:13.940Z,102144.84
2022-10-11T06:22:40.248Z,102138.69
2022-10-11T06:25:07.109Z,102145.84
2022-10-11T06:27:33.378Z,102156.53
2022-10-11T06:30:00.141Z,102161.16
2022-10-11T06:32:26.525Z,102166.63
2022-10-11T06:34:52.836Z,102170.25
2022-10-11T06:37:19.366Z,102162.53
2022-10-11T06:39:45.625Z,102166.44
2022-10-11T06:42:11.951Z,102168.00
2022-10-11T06:44:38.838Z,102167.75
2022-10-11T06:47:06.331Z,102162.13
2022-10-11T06:49:32.643Z,102164.19
2022-10-11T06:51:58.913Z,102165.16
2022-10-11T06:54:25.225Z,102174.22
2022-10-11T06:56:51.583Z,102162.75
2022-10-11T06:59:17.965Z,102167.22
2022-10-11T07:01:44.229Z,102167.47
2022-10-11T07:04:10.522Z,102181.94
2022-10-11T07:06:38.210Z,102176.22
2022-10-11T07:09:05.271Z,102174.13
2022-10-11T07:11:31.628Z,102178.91
2022-10-11T07:14:02.386Z,102183.88
2022-10-11T07:16:28.811Z,102186.28
2022-10-11T07:19:00.212Z,102191.13
2022-10-11T07:21:27.772Z,102184.28
2022-10-11T07:23:54.147Z,102185.22
2022-10-11T07:26:20.654Z,102193.19
2022-10-11T07:28:47.310Z,102200.28
2022-10-11T07:31:15.319Z,102197.84
2022-10-11T07:33:41.618Z,102204.06
2022-10-11T07:36:09.002Z,102202.31
2022-10-11T07:38:38.302Z,102213.13
2022-10-11T07:41:05.770Z,102216.03
2022-10-11T07:43:32.370Z,102211.88
2022-10-11T07:46:04.062Z,102212.13
2022-10-11T07:48:32.979Z,102210.63
2022-10-11T07:51:10.005Z,102212.59
2022-10-11T07:53:43.436Z,102216.66
2022-10-11T07:56:12.441Z,102220.66
2022-10-11T07:58:39.251Z,102221.44
2022-10-11T08:01:05.728Z,102221.31
2022-10-11T08:03:32.317Z,102222.75
2022-10-11T08:06:03.539Z,102223.94
2022-10-11T08:08:31.061Z,102226.44
2022-10-11T08:10:57.906Z,102219.00
2022-10-11T08:13:24.328Z,102224.97
2022-10-11T08:15:50.700Z,102219.84
2022-10-11T08:18:17.201Z,102228.13
2022-10-11T08:20:43.491Z,102228.47
2022-10-11T08:23:09.807Z,102231.19
2022-10-11T08:25:40.332Z,102233.16
2022-10-11T08:28:06.916Z,102234.78
2022-10-11T08:30:33.585Z,102233.19
2022-10-11T08:33:00.894Z,102231.34
2022-10-11T08:35:29.293Z,102238.44
2022-10-11T08:37:55.987Z,102236.06
2022-10-11T08:40:24.235Z,102238.75
2022-10-11T08:42:50.465Z,102244.25
2022-10-11T08:45:29.895Z,102251.41
2022-10-11T08:48:05.183Z,102248.19
2022-10-11T08:50:31.727Z,102248.59
2022-10-11T08:53:03.275Z,102243.31
2022-10-11T08:55:34.763Z,102248.50
2022-10-11T08:58:01.226Z,102256.53
2022-10-11T09:00:30.515Z,102257.56
2022-10-11T09:03:09.564Z,102256.00
2022-10-11T09:05:39.413Z,102257.88
2022-10-11T09:08:05.637Z,102255.31
2022-10-11T09:10:38.043Z,102252.03
2022-10-11T09:13:31.418Z,102261.69
2022-10-11T09:16:09.697Z,102261.06
2022-10-11T09:18:50.087Z,102263.09
2022-10-11T09:21:34.460Z,102266.06
2022-10-11T09:24:09.856Z,102265.34
2022-10-11T09:26:44.698Z,102261.06
2022-10-11T09:29:25.867Z,102263.13
2022-10-11T09:31:53.811Z,102258.69
2022-10-11T09:34:21.944Z,102265.81
2022-10-11T09:37:06.716Z,102272.97
2022-10-11T09:39:45.682Z,102274.03
2022-10-11T09:42:12.375Z,102266.22
2022-10-11T09:44:49.207Z,102274.25
2022-10-11T09:47:25.681Z,102277.19
2022-10-11T09:49:57.777Z,102276.44
2022-10-11T09:52:25.006Z,102281.78
2022-10-11T09:54:54.007Z,102279.34
2022-10-11T09:57:27.900Z,102280.94
2022-10-11T10:00:13.007Z,102283.94
2022-10-11T10:02:41.201Z,102283.31
2022-10-11T10:05:10.714Z,102282.66
2022-10-11T10:07:40.949Z,102273.00
2022-10-11T10:10:25.863Z,102274.03
2022-10-11T10:12:56.279Z,102277.81
2022-10-11T10:15:23.513Z,102285.13
2022-10-11T10:17:51.003Z,102277.34
2022-10-11T10:20:22.710Z,102273.44
2022-10-11T10:22:49.189Z,102267.66
2022-10-11T10:25:30.006Z,102279.38
2022-10-11T10:27:57.792Z,102270.66
2022-10-11T10:30:24.884Z,102269.84
2022-10-11T10:33:02.895Z,102270.81
2022-10-11T10:35:38.110Z,102264.72
2022-10-11T10:38:08.602Z,102259.38
2022-10-11T10:40:40.031Z,102269.34
2022-10-11T10:43:06.349Z,102276.63
2022-10-11T10:45:39.586Z,102264.44
2022-10-11T10:48:11.798Z,102262.88
2022-10-11T10:50:48.455Z,102255.13
2022-10-11T10:53:36.879Z,102261.47
2022-10-11T10:56:10.911Z,102257.97
2022-10-11T10:58:46.274Z,102269.47
2022-10-11T11:01:20.900Z,102265.19
2022-10-11T11:03:56.496Z,102265.09
2022-10-11T11:06:27.429Z,102262.50
2022-10-11T11:09:12.741Z,102272.19
2022-10-11T11:11:39.082Z,102270.22
2022-10-11T11:14:21.704Z,102281.50
2022-10-11T11:17:07.089Z,102278.50
2022-10-11T11:19:39.300Z,102282.59
2022-10-11T11:22:20.363Z,102283.19
2022-10-11T11:24:56.720Z,102292.63
2022-10-11T11:27:38.030Z,102287.28
2022-10-11T11:30:24.600Z,102287.38
2022-10-11T11:33:09.738Z,102277.84
2022-10-11T11:35:35.971Z,102286.97
2022-10-11T11:38:09.532Z,102293.69
2022-10-11T11:40:44.306Z,102281.56
2022-10-11T11:43:16.562Z,102275.38
2022-10-11T11:45:49.778Z,102275.16
2022-10-11T11:48:18.687Z,102283.75
2022-10-11T11:50:49.186Z,102281.78
2022-10-11T11:53:19.039Z,102291.47
2022-10-11T11:55:49.264Z,102284.66
2022-10-11T11:58:27.729Z,102287.69
2022-10-11T12:00:56.987Z,102274.78
2022-10-11T12:03:52.772Z,102279.31
2022-10-11T12:06:24.206Z,102277.63
2022-10-11T12:09:09.014Z,102271.13
2022-10-11T12:11:37.947Z,102268.19
2022-10-11T12:14:18.473Z,102268.91
2022-10-11T12:17:04.970Z,102264.91
2022-10-11T12:19:31.406Z,102260.03
2022-10-11T12:22:36.642Z,102275.44
2022-10-11T12:25:09.109Z,102266.81
2022-10-11T12:28:01.674Z,102268.25
2022-10-11T12:30:53.360Z,102269.50
2022-10-11T12:33:22.294Z,102267.44
2022-10-11T12:36:01.474Z,102262.13
2022-10-11T12:38:38.393Z,102266.94
2022-10-11T12:41:10.675Z,102247.75
2022-10-11T12:43:48.800Z,102247.16
2022-10-11T12:46:31.014Z,102248.25
2022-10-11T12:49:10.239Z,102264.22
2022-10-11T12:51:42.068Z,102260.00
2022-10-11T12:54:29.997Z,102266.13
2022-10-11T12:57:12.098Z,102279.25
2022-10-11T12:59:41.519Z,102280.16
2022-10-11T13:02:28.365Z,102278.50
2022-10-11T13:05:18.068Z,102282.94
2022-10-11T13:07:45.114Z,102275.75
2022-10-11T13:10:16.017Z,102275.72
2022-10-11T13:12:44.607Z,102280.88
2022-10-11T13:15:14.390Z,102279.94
2022-10-11T13:17:41.014Z,102281.53
2022-10-11T13:20:13.145Z,102281.53
2022-10-11T13:22:39.878Z,102283.28
2022-10-11T13:25:07.209Z,102274.47
2022-10-11T13:27:33.981Z,102277.13
2022-10-11T13:30:02.114Z,102268.31
2022-10-11T13:32:30.153Z,102274.47
2022-10-11T13:35:07.078Z,102280.59
2022-10-11T13:37:52.604Z,102280.63
2022-10-11T13:40:20.888Z,102288.56
2022-10-11T13:42:48.555Z,102287.63
2022-10-11T13:45:16.974Z,102284.00
2022-10-11T13:47:43.583Z,102291.06
2022-10-11T13:50:16.090Z,102292.84
2022-10-11T13:53:11.959Z,102287.63
2022-10-11T13:55:50.260Z,102289.56
2022-10-11T13:58:27.570Z,102289.56
2022-10-11T14:00:53.850Z,102286.88
2022-10-11T14:03:21.084Z,102283.25
2022-10-11T14:05:54.911Z,102277.88
2022-10-11T14:08:24.365Z,102280.38
2022-10-11T14:10:56.405Z,102285.66
2022-10-11T14:13:31.530Z,102285.59
2022-10-11T14:15:58.646Z,102281.13
2022-10-11T14:18:33.173Z,102280.22
2022-10-11T14:21:17.229Z,102279.28
2022-10-11T14:23:43.664Z,102283.66
2022-10-11T14:26:16.372Z,102276.56
2022-10-11T14:28:45.516Z,102288.03
2022-10-11T14:31:13.248Z,102284.53
2022-10-11T14:33:39.561Z,102283.66
2022-10-11T14:36:06.067Z,102287.13
2022-10-11T14:38:32.570Z,102280.13
2022-10-11T14:40:58.848Z,102287.22
2022-10-11T14:43:25.109Z,102290.69
2022-10-11T14:45:51.563Z,102290.63
2022-10-11T14:48:36.653Z,102287.09
2022-10-11T14:51:04.726Z,102294.16
2022-10-11T14:53:30.982Z,102291.44
2022-10-11T14:55:57.277Z,102293.25
2022-10-11T14:58:23.534Z,102295.91
2022-10-11T15:00:49.775Z,102294.06
2022-10-11T15:03:16.246Z,102293.09
2022-10-11T15:05:42.594Z,102300.91
2022-10-11T15:08:08.863Z,102302.56
2022-10-11T15:10:39.569Z,102304.25
2022-10-11T15:13:07.349Z,102302.38
2022-10-11T15:15:36.892Z,102296.94
2022-10-11T15:18:04.842Z,102299.47
2022-10-11T15:20:33.765Z,102300.31
2022-10-11T15:23:00.490Z,102305.66
2022-10-11T15:25:27.690Z,102300.44
2022-10-11T15:27:54.188Z,102298.66
2022-10-11T15:30:25.156Z,102299.56
2022-10-11T15:32:51.916Z,102294.25
2022-10-11T15:35:18.811Z,102297.75
2022-10-11T15:37:45.183Z,102298.66
2022-10-11T15:40:17.741Z,102304.84
2022-10-11T15:42:44.498Z,102305.69
2022-10-11T15:45:11.407Z,102304.72
2022-10-11T15:47:37.929Z,102298.53
2022-10-11T15:50:11.148Z,102299.34
2022-10-11T15:52:37.605Z,102304.59
2022-10-11T15:55:04.010Z,102310.72
2022-10-11T15:57:30.283Z,102310.66
2022-10-11T15:59:56.562Z,102313.31
2022-10-11T16:02:22.825Z,102311.47
2022-10-11T16:04:49.080Z,102318.53
2022-10-11T16:07:15.361Z,102312.31
2022-10-11T16:09:41.617Z,102313.06
2022-10-11T16:12:07.870Z,102324.41
2022-10-11T16:14:34.152Z,102322.44
2022-10-11T16:17:03.060Z,102324.03
2022-10-11T16:19:29.322Z,102322.06
2022-10-11T16:21:55.590Z,102320.06
2022-10-11T16:24:21.909Z,102319.91
2022-10-11T16:26:48.163Z,102319.72
2022-10-11T16:29:14.415Z,102325.75
2022-10-11T16:31:40.672Z,102322.97
2022-10-11T16:34:07.005Z,102329.03
2022-10-11T16:36:36.671Z,102326.38
2022-10-11T16:39:14.154Z,102330.72
2022-10-11T16:41:40.900Z,102327.06
2022-10-11T16:44:07.181Z,102326.09
2022-10-11T16:46:34.113Z,102334.75
2022-10-11T16:49:00.414Z,102331.97
2022-10-11T16:51:26.905Z,102344.06
2022-10-11T16:53:53.393Z,102336.88
2022-10-11T16:56:22.433Z,102341.06
2022-10-11T16:58:48.690Z,102328.53
2022-10-11T17:01:15.215Z,102341.59
2022-10-11T17:03:41.501Z,102335.28
2022-10-11T17:06:08.275Z,102345.63
2022-10-11T17:08:35.286Z,102349.94
2022-10-11T17:11:01.831Z,102356.88
2022-10-11T17:13:28.297Z,102366.22
2022-10-11T17:15:54.598Z,102371.38
2022-10-11T17:18:20.865Z,102363.19
2022-10-11T17:20:47.133Z,102368.28
2022-10-11T17:23:13.452Z,102367.19
2022-10-11T17:25:43.763Z,102362.63
2022-10-11T17:28:10.192Z,102363.31
2022-10-11T17:30:36.796Z,102367.56
2022-10-11T17:33:03.717Z,102378.06
2022-10-11T17:35:33.609Z,102377.91
2022-10-11T17:38:05.019Z,102376.03
2022-10-11T17:40:32.476Z,102370.50
2022-10-11T17:42:58.723Z,102371.25
2022-10-11T17:45:25.066Z,102372.84
2022-10-11T17:47:51.388Z,102370.16
2022-10-11T17:50:17.779Z,102370.06
2022-10-11T17:52:44.038Z,102371.69
2022-10-11T17:55:10.313Z,102368.03
2022-10-11T17:57:36.673Z,102370.56
2022-10-11T18:00:04.279Z,102368.56
2022-10-11T18:02:30.606Z,102371.06
2022-10-11T18:04:56.979Z,102367.41
2022-10-11T18:07:24.123Z,102370.81
2022-10-11T18:09:50.406Z,102367.16
2022-10-11T18:12:16.711Z,102368.78
2022-10-11T18:14:43.039Z,102369.47
2022-10-11T18:17:09.326Z,102368.44
2022-10-11T18:19:35.607Z,102356.88
2022-10-11T18:22:05.982Z,102369.88
2022-10-11T18:24:33.411Z,102359.19
2022-10-11T18:26:59.689Z,102359.00
2022-10-11T18:29:26.034Z,102358.00
2022-10-11T18:31:52.312Z,102366.69
2022-10-11T18:34:18.826Z,102366.63
2022-10-11T18:36:45.252Z,102366.63
2022-10-11T18:39:12.794Z,102361.47
2022-10-11T18:41:39.850Z,102366.16
2022-10-11T18:44:07.281Z,102364.72
2022-10-11T18:46:35.085Z,102362.41
2022-10-11T18:49:02.057Z,102360.09
2022-10-11T18:51:30.166Z,102369.19
2022-10-11T18:53:58.807Z,102363.16
2022-10-11T18:56:25.873Z,102358.75
2022-10-11T18:58:53.008Z,102369.25
2022-10-11T19:01:23.751Z,102363.88
2022-10-11T19:03:52.386Z,102371.72
2022-10-11T19:06:21.345Z,102366.50
2022-10-11T19:08:49.146Z,102368.44
2022-10-11T19:11:16.374Z,102361.63
2022-10-11T19:13:43.273Z,102363.59
2022-10-11T19:16:13.877Z,102371.72
2022-10-11T19:18:44.044Z,102369.25
2022-10-11T19:21:12.493Z,102370.31
2022-10-11T19:23:39.855Z,102366.91
2022-10-11T19:26:07.010Z,102372.34
2022-10-11T19:28:34.036Z,102365.41
2022-10-11T19:31:01.003Z,102367.25
2022-10-11T19:33:27.395Z,102376.13
2022-10-11T19:35:57.261Z,102377.94
2022-10-11T19:38:23.748Z,102381.50
2022-10-11T19:40:50.539Z,102375.34
2022-10-11T19:43:16.990Z,102376.34
2022-10-11T19:45:44.015Z,102381.69
2022-10-11T19:48:11.391Z,102383.53
2022-10-11T19:50:37.663Z,102379.16
2022-10-11T19:53:04.447Z,102380.09
2022-10-11T19:55:30.909Z,102391.50
2022-10-11T19:57:57.169Z,102391.53
2022-10-11T20:00:23.439Z,102389.84
2022-10-11T20:02:49.753Z,102389.91
2022-10-11T20:05:16.119Z,102382.84
2022-10-11T20:07:42.387Z,102390.81
2022-10-11T20:10:08.701Z,102382.88
2022-10-11T20:12:35.534Z,102394.41
2022-10-11T20:15:02.083Z,102393.53
2022-10-11T20:17:48.154Z,102381.19
2022-10-11T20:20:15.036Z,102386.53
2022-10-11T20:22:41.311Z,102389.22
2022-10-11T20:25:07.812Z,102379.53
2022-10-11T20:27:34.563Z,102383.94
2022-10-11T20:30:01.013Z,102381.34
2022-10-11T20:32:27.575Z,102384.91
2022-10-11T20:34:53.856Z,102387.53
2022-10-11T20:37:20.108Z,102386.63
2022-10-11T20:39:46.382Z,102389.28
2022-10-11T20:42:12.667Z,102384.00
2022-10-11T20:44:38.935Z,102390.19
2022-10-11T20:47:05.170Z,102384.00
2022-10-11T20:49:31.549Z,102379.63
2022-10-11T20:51:57.846Z,102381.41
2022-10-11T20:54:24.186Z,102386.72
2022-10-11T20:56:50.493Z,102390.28
2022-10-11T20:59:16.742Z,102386.78
2022-10-11T21:01:43.227Z,102386.81
2022-10-11T21:04:14.330Z,102386.19
2022-10-11T21:06:40.689Z,102383.63
2022-10-11T21:09:07.842Z,102391.88
2022-10-11T21:11:35.505Z,102379.56
2022-10-11T21:14:03.090Z,102384.03
2022-10-11T21:16:29.565Z,102387.72
2022-10-11T21:18:57.036Z,102389.53
2022-10-11T21:21:23.931Z,102390.66
2022-10-11T21:23:53.243Z,102381.06
2022-10-11T21:26:19.670Z,102384.75
2022-10-11T21:28:46.528Z,102377.78
2022-10-11T21:31:14.602Z,102377.00
2022-10-11T21:33:41.288Z,102371.81
2022-10-11T21:36:08.820Z,102372.78
2022-10-11T21:38:35.548Z,102375.53
2022-10-11T21:41:02.761Z,102383.63
2022-10-11T21:43:28.994Z,102376.56
2022-10-11T21:45:55.393Z,102374.75
2022-10-11T21:48:21.835Z,102382.78
2022-10-11T21:50:54.988Z,102381.97
2022-10-11T21:53:21.395Z,102381.09
2022-10-11T21:55:47.691Z,102377.66
2022-10-11T21:58:14.156Z,102373.50
2022-10-11T22:00:40.460Z,102376.22
2022-10-11T22:03:06.930Z,102369.22
2022-10-11T22:05:33.235Z,102363.88
2022-10-11T22:07:59.492Z,102376.19
2022-10-11T22:10:25.769Z,102375.09
2022-10-11T22:12:52.031Z,102378.31
2022-10-11T22:15:18.288Z,102369.41
2022-10-11T22:17:44.573Z,102373.56
2022-10-11T22:20:10.855Z,102382.91
2022-10-11T22:22:37.675Z,102394.09
2022-10-11T22:25:04.512Z,102392.31
2022-10-11T22:27:30.759Z,102386.06
2022-10-11T22:29:57.029Z,102383.38
2022-10-11T22:32:23.270Z,102381.56
2022-10-11T22:34:49.534Z,102398.19
2022-10-11T22:37:15.850Z,102393.72
2022-10-11T22:39:42.117Z,102397.19
2022-10-11T22:42:08.394Z,102392.00
2022-10-11T22:44:34.711Z,102400.94
2022-10-11T22:47:01.000Z,102394.00
2022-10-11T22:49:27.280Z,102397.56
2022-10-11T22:51:53.623Z,102399.44
2022-10-11T22:54:19.885Z,102398.75
2022-10-11T22:56:46.142Z,102398.81
2022-10-11T22:59:12.403Z,102398.81
2022-10-11T23:01:38.642Z,102399.56
2022-10-11T23:04:05.023Z,102402.22
2022-10-11T23:06:31.915Z,102398.56
2022-10-11T23:08:58.304Z,102396.84
2022-10-11T23:11:24.560Z,102405.59
2022-10-11T23:13:50.793Z,102404.00
2022-10-11T23:16:17.060Z,102396.81
2022-10-11T23:18:43.433Z,102399.38
2022-10-11T23:21:09.867Z,102399.31
2022-10-11T23:23:36.568Z,102400.19
2022-10-11T23:26:10.976Z,102396.59
2022-10-11T23:28:37.635Z,102394.72
2022-10-11T23:31:07.694Z,102398.06
2022-10-11T23:33:34.140Z,102401.44
2022-10-11T23:36:00.426Z,102403.03
2022-10-11T23:38:26.676Z,102397.59
2022-10-11T23:40:52.936Z,102405.50
2022-10-11T23:43:19.223Z,102400.22
2022-10-11T23:45:45.505Z,102408.03
2022-10-11T23:48:11.899Z,102408.78
2022-10-11T23:50:38.179Z,102406.91
2022-10-11T23:53:04.440Z,102407.66
2022-10-11T23:55:30.780Z,102407.63
2022-10-11T23:57:57.069Z,102413.72
